Time;durP1;ratioP1;P1;durP2;ratioP2;P2;SDS_P1;SDS_P2;PMS_P1;PMS_P2;Temp;Humidity;BMP_temperature;BMP_pressure;BME280_temperature;BME280_humidity;BME280_pressure;Samples;Min_cycle;Max_cycle;Signal;HPM_P1;HPM_P2
2022/05/16 00:02:27;;;;;;;11.33;4.43;;;25.40;42.50;;;;;;5026811;28;20291;-87
2022/05/16 00:04:54;;;;;;;7.97;4.10;;;25.40;42.80;;;;;;5036639;28;20232;-88
2022/05/16 00:07:22;;;;;;;8.90;4.57;;;25.40;42.70;;;;;;5043176;28;20228;-87
2022/05/16 00:09:49;;;;;;;8.60;3.80;;;25.40;42.90;;;;;;5040807;28;20201;-87
2022/05/16 00:12:18;;;;;;;10.93;4.93;;;25.30;42.90;;;;;;5031724;28;20197;-87
2022/05/16 00:14:46;;;;;;;8.20;4.13;;;25.30;43.30;;;;;;5012483;28;20230;-88
2022/05/16 00:17:14;;;;;;;11.27;5.17;;;25.30;43.40;;;;;;5012652;28;20251;-88
2022/05/16 00:19:41;;;;;;;8.73;3.73;;;25.20;43.50;;;;;;5031250;28;20600;-88
2022/05/16 00:22:11;;;;;;;10.50;4.47;;;25.20;43.60;;;;;;5029338;28;20232;-88
2022/05/16 00:24:41;;;;;;;7.57;3.33;;;25.10;43.50;;;;;;5029353;28;20204;-87
2022/05/16 00:27:11;;;;;;;9.20;4.43;;;25.00;43.60;;;;;;5027617;28;20291;-88
2022/05/16 00:29:41;;;;;;;8.77;4.00;;;25.00;43.80;;;;;;5036786;28;20267;-88
2022/05/16 00:32:09;;;;;;;8.10;3.80;;;24.90;44.10;;;;;;5047970;28;20224;-88
2022/05/16 00:34:36;;;;;;;6.83;3.50;;;24.90;43.70;;;;;;5044784;28;20731;-87
2022/05/16 00:37:03;;;;;;;8.53;3.67;;;24.90;44.00;;;;;;5034070;28;20267;-88
2022/05/16 00:39:30;;;;;;;9.93;4.90;;;24.80;44.00;;;;;;5031134;28;20570;-88
2022/05/16 00:41:57;;;;;;;5.93;3.10;;;24.80;44.20;;;;;;5023025;28;20569;-88
2022/05/16 00:44:26;;;;;;;10.87;4.63;;;24.70;44.10;;;;;;5012333;28;20224;-87
2022/05/16 00:46:54;;;;;;;8.03;3.50;;;24.70;44.30;;;;;;5011422;28;20256;-88
2022/05/16 00:49:27;;;;;;;6.23;3.30;;;24.70;44.40;;;;;;5010775;28;20215;-88
2022/05/16 00:52:00;;;;;;;6.07;3.77;;;24.60;44.20;;;;;;5041699;28;20216;-88
2022/05/16 00:54:31;;;;;;;13.33;5.10;;;24.60;44.70;;;;;;5030981;28;20275;-87
2022/05/16 00:57:01;;;;;;;7.90;3.73;;;24.50;44.30;;;;;;5029781;28;20231;-88
2022/05/16 00:59:38;;;;;;;9.43;4.30;;;24.50;44.50;;;;;;5029137;28;20298;-92
2022/05/16 01:04:51;;;;;;;8.83;3.67;;;24.40;44.40;;;;;;5032836;28;20779;-95
2022/05/16 01:07:25;;;;;;;10.53;4.87;;;24.40;44.10;;;;;;5033064;28;20299;-88
2022/05/16 01:09:53;;;;;;;8.90;3.20;;;24.40;44.50;;;;;;5031098;28;20307;-94
2022/05/16 01:12:24;;;;;;;9.37;3.67;;;24.40;44.40;;;;;;5027904;28;20204;-95
2022/05/16 01:14:58;;;;;;;11.60;4.17;;;24.30;44.60;;;;;;5027850;28;20220;-87
2022/05/16 01:17:27;;;;;;;6.87;3.70;;;24.30;45.00;;;;;;5031483;28;20200;-94
2022/05/16 01:19:56;;;;;;;4.10;2.80;;;24.30;44.80;;;;;;5024125;28;20251;-94
2022/05/16 01:22:29;;;;;;;7.07;3.17;;;24.30;45.00;;;;;;5034027;28;20213;-94
2022/05/16 01:24:57;;;;;;;6.50;3.73;;;24.20;45.20;;;;;;5033883;28;20212;-89
2022/05/16 01:27:41;;;;;;;5.63;3.13;;;24.20;45.00;;;;;;5033350;28;20209;-92
2022/05/16 01:30:09;;;;;;;7.73;4.07;;;24.20;45.60;;;;;;5027862;28;20286;-87
2022/05/16 01:32:36;;;;;;;7.60;3.97;;;24.20;45.50;;;;;;5029678;28;20247;-90
2022/05/16 01:35:04;;;;;;;10.10;3.77;;;24.10;45.40;;;;;;5027305;28;20244;-91
2022/05/16 01:40:13;;;;;;;9.00;4.63;;;24.10;45.70;;;;;;5027338;28;20285;-89
2022/05/16 01:42:41;;;;;;;8.27;3.80;;;24.10;45.30;;;;;;5028914;28;20204;-88
2022/05/16 01:45:08;;;;;;;10.83;4.93;;;24.00;45.30;;;;;;5029450;28;20224;-90
2022/05/16 01:47:36;;;;;;;12.17;5.07;;;24.00;45.30;;;;;;5034243;28;20298;-89
2022/05/16 01:50:03;;;;;;;7.53;3.90;;;24.00;45.60;;;;;;5028759;28;20266;-89
2022/05/16 01:52:33;;;;;;;8.07;4.23;;;23.90;45.70;;;;;;5027730;28;20679;-89
2022/05/16 01:54:59;;;;;;;8.73;4.17;;;23.90;45.70;;;;;;5032715;28;20251;-91
2022/05/16 01:57:26;;;;;;;6.90;4.07;;;23.90;46.20;;;;;;5033086;28;20201;-89
2022/05/16 01:59:53;;;;;;;7.37;4.43;;;23.90;45.60;;;;;;5032053;28;20678;-88
2022/05/16 02:02:23;;;;;;;12.43;5.57;;;23.90;45.80;;;;;;5031470;28;20295;-90
2022/05/16 02:04:50;;;;;;;8.63;3.93;;;23.90;45.90;;;;;;5031791;28;20244;-89
2022/05/16 02:07:17;;;;;;;10.23;5.17;;;23.90;46.00;;;;;;5033050;28;20251;-90
2022/05/16 02:09:45;;;;;;;9.47;4.47;;;23.90;46.60;;;;;;5032673;28;20619;-91
2022/05/16 02:12:15;;;;;;;11.90;5.60;;;23.80;46.00;;;;;;5032019;28;20231;-89
2022/05/16 02:14:42;;;;;;;9.03;4.57;;;23.80;46.10;;;;;;5032615;28;20229;-89
2022/05/16 02:17:09;;;;;;;10.63;5.40;;;23.80;46.00;;;;;;5032660;28;20319;-88
2022/05/16 02:19:36;;;;;;;8.90;4.53;;;23.80;46.00;;;;;;5033417;28;20236;-91
2022/05/16 02:24:51;;;;;;;7.90;4.33;;;23.80;46.10;;;;;;5031678;28;20210;-89
2022/05/16 02:27:19;;;;;;;10.90;5.40;;;23.80;46.40;;;;;;5032683;28;20263;-89
2022/05/16 02:29:47;;;;;;;8.47;4.90;;;23.70;46.10;;;;;;5028821;28;20215;-88
2022/05/16 02:32:14;;;;;;;11.23;4.93;;;23.70;46.30;;;;;;5030377;28;20254;-88
2022/05/16 02:34:44;;;;;;;10.90;5.17;;;23.60;46.40;;;;;;5029012;28;20317;-88
2022/05/16 02:37:12;;;;;;;9.50;4.70;;;23.60;46.30;;;;;;5031990;28;20211;-88
2022/05/16 02:39:44;;;;;;;10.57;4.90;;;23.60;46.30;;;;;;5035240;28;20208;-89
2022/05/16 02:42:14;;;;;;;7.63;4.10;;;23.60;46.10;;;;;;5032879;28;20653;-89
2022/05/16 02:44:41;;;;;;;16.40;7.20;;;23.60;46.50;;;;;;5029959;28;20208;-90
2022/05/16 02:47:11;;;;;;;6.77;4.10;;;23.60;46.40;;;;;;5033808;28;20197;-88
2022/05/16 02:49:38;;;;;;;12.50;6.13;;;23.60;46.50;;;;;;5036365;28;20231;-87
2022/05/16 02:52:06;;;;;;;9.33;4.70;;;23.60;46.50;;;;;;5040414;28;20265;-88
2022/05/16 02:54:33;;;;;;;10.30;4.87;;;23.60;46.80;;;;;;5022044;28;20330;-88
2022/05/16 02:57:01;;;;;;;7.63;4.63;;;23.50;46.60;;;;;;5014710;28;20966;-88
2022/05/16 02:59:32;;;;;;;13.33;5.17;;;23.50;46.70;;;;;;5023980;28;20209;-88
2022/05/16 03:02:00;;;;;;;10.27;4.20;;;23.50;47.00;;;;;;5032090;28;20575;-88
2022/05/16 03:04:27;;;;;;;9.60;5.13;;;23.50;47.10;;;;;;5031352;28;20197;-88
2022/05/16 03:06:54;;;;;;;11.13;4.80;;;23.50;47.00;;;;;;5031888;28;20243;-88
2022/05/16 03:09:21;;;;;;;10.77;4.80;;;23.50;47.20;;;;;;5030161;28;20657;-88
2022/05/16 03:11:49;;;;;;;8.67;5.13;;;23.50;47.20;;;;;;5027393;28;20701;-88
2022/05/16 03:14:16;;;;;;;8.90;4.73;;;23.50;47.10;;;;;;5029727;28;20232;-88
2022/05/16 03:16:45;;;;;;;7.53;4.50;;;23.50;47.20;;;;;;5028526;28;20228;-88
2022/05/16 03:19:13;;;;;;;8.43;4.40;;;23.50;47.20;;;;;;5030909;28;20278;-88
2022/05/16 03:21:40;;;;;;;10.20;5.00;;;23.50;47.50;;;;;;5029778;28;20201;-89
2022/05/16 03:24:08;;;;;;;12.27;5.63;;;23.40;47.30;;;;;;5029391;28;20372;-89
2022/05/16 03:26:35;;;;;;;13.17;6.27;;;23.40;47.40;;;;;;5029953;28;20646;-89
2022/05/16 03:29:06;;;;;;;14.43;5.87;;;23.40;47.20;;;;;;5029338;28;20296;-87
2022/05/16 03:31:34;;;;;;;10.00;4.97;;;23.40;47.40;;;;;;5029233;28;20204;-88
2022/05/16 03:34:03;;;;;;;9.53;5.10;;;23.40;47.20;;;;;;5030600;28;20224;-88
2022/05/16 03:36:33;;;;;;;11.20;5.63;;;23.30;47.20;;;;;;5028242;28;20213;-89
2022/05/16 03:41:44;;;;;;;9.57;5.33;;;23.30;47.40;;;;;;5044980;28;20278;-88
2022/05/16 03:44:12;;;;;;;7.23;4.03;;;23.30;47.30;;;;;;5043779;28;20207;-88
2022/05/16 03:46:39;;;;;;;11.50;5.07;;;23.30;47.50;;;;;;5036195;28;20265;-88
2022/05/16 03:49:08;;;;;;;11.50;5.57;;;23.20;47.50;;;;;;5031829;28;20673;-88
2022/05/16 03:51:35;;;;;;;11.57;4.83;;;23.20;48.00;;;;;;5029489;28;20246;-88
2022/05/16 03:54:02;;;;;;;10.33;4.87;;;23.20;47.90;;;;;;5031171;28;20406;-89
2022/05/16 03:56:30;;;;;;;9.73;4.67;;;23.20;48.00;;;;;;5030607;28;20299;-88
2022/05/16 03:58:58;;;;;;;11.07;5.53;;;23.20;48.20;;;;;;5031539;28;20298;-89
2022/05/16 04:01:32;;;;;;;8.60;4.93;;;23.20;47.90;;;;;;5033091;28;20221;-88
2022/05/16 04:03:59;;;;;;;12.37;5.30;;;23.10;48.40;;;;;;5048002;28;20212;-88
2022/05/16 04:06:27;;;;;;;12.40;5.53;;;23.10;48.20;;;;;;5046533;28;20232;-89
2022/05/16 04:08:59;;;;;;;9.07;4.73;;;23.20;48.30;;;;;;5032213;28;20208;-88
2022/05/16 04:11:26;;;;;;;10.23;4.83;;;23.10;48.50;;;;;;5031929;28;20292;-87
2022/05/16 04:13:53;;;;;;;10.93;4.73;;;23.10;49.30;;;;;;5030338;28;20220;-89
2022/05/16 04:16:20;;;;;;;9.40;4.33;;;23.20;48.70;;;;;;5030134;28;20655;-89
2022/05/16 04:18:47;;;;;;;13.37;5.70;;;23.20;48.80;;;;;;5027859;28;20205;-88
2022/05/16 04:21:19;;;;;;;10.20;4.30;;;23.20;48.70;;;;;;5028761;28;20250;-88
2022/05/16 04:23:48;;;;;;;10.00;4.63;;;23.10;48.90;;;;;;5030407;28;20235;-89
2022/05/16 04:26:16;;;;;;;14.63;4.37;;;23.10;48.90;;;;;;5028271;28;20679;-89
2022/05/16 04:28:43;;;;;;;11.50;5.23;;;23.10;49.20;;;;;;5028627;28;20292;-88
2022/05/16 04:31:10;;;;;;;11.83;4.70;;;23.10;49.10;;;;;;5027413;28;20232;-91
2022/05/16 04:33:37;;;;;;;10.97;5.43;;;23.10;49.20;;;;;;5029057;28;20292;-89
2022/05/16 04:36:04;;;;;;;8.90;4.80;;;23.10;49.20;;;;;;5026810;28;20306;-88
2022/05/16 04:38:32;;;;;;;10.17;5.03;;;23.10;49.20;;;;;;5030589;28;20213;-90
2022/05/16 04:43:46;;;;;;;16.60;5.57;;;23.10;49.70;;;;;;5027858;28;20203;-90
2022/05/16 04:46:13;;;;;;;9.27;4.57;;;23.10;49.60;;;;;;5028376;28;20677;-88
2022/05/16 04:48:40;;;;;;;11.03;4.90;;;23.10;49.70;;;;;;5029352;28;20283;-93
2022/05/16 04:51:07;;;;;;;10.33;4.97;;;23.10;49.90;;;;;;5027324;28;20228;-89
2022/05/16 04:53:34;;;;;;;15.20;5.53;;;23.10;50.10;;;;;;5029234;28;20322;-90
2022/05/16 04:56:04;;;;;;;10.97;4.90;;;23.10;50.00;;;;;;5029834;28;20197;-91
2022/05/16 04:58:33;;;;;;;10.80;5.43;;;23.10;50.20;;;;;;5029299;28;20284;-90
2022/05/16 05:01:00;;;;;;;8.83;4.37;;;23.10;50.30;;;;;;5028241;28;20339;-87
2022/05/16 05:03:33;;;;;;;13.50;5.90;;;23.10;50.30;;;;;;5024733;28;20314;-89
2022/05/16 05:06:00;;;;;;;6.77;4.07;;;23.20;50.60;;;;;;5024603;28;20208;-89
2022/05/16 05:08:28;;;;;;;9.23;4.50;;;23.20;50.50;;;;;;5028124;28;20231;-88
2022/05/16 05:16:25;;;;;;;13.50;5.40;;;23.20;50.80;;;;;;5027548;28;20280;-87
2022/05/16 05:18:53;;;;;;;8.47;3.73;;;23.20;50.80;;;;;;5028046;28;20211;-87
2022/05/16 05:21:20;;;;;;;7.33;4.00;;;23.30;50.90;;;;;;5029381;28;20316;-88
2022/05/16 05:23:48;;;;;;;11.90;5.30;;;23.30;51.00;;;;;;5028575;28;20273;-89
2022/05/16 05:26:15;;;;;;;12.43;4.70;;;23.30;51.00;;;;;;5037999;28;20272;-88
2022/05/16 05:28:43;;;;;;;10.83;4.27;;;23.30;51.20;;;;;;5032303;28;20658;-89
2022/05/16 05:31:12;;;;;;;15.40;6.87;;;23.30;51.30;;;;;;5033550;28;20339;-90
2022/05/16 05:33:40;;;;;;;9.70;4.40;;;23.30;51.50;;;;;;4998265;28;1130152;-93
2022/05/16 05:36:08;;;;;;;6.53;3.10;;;23.30;51.60;;;;;;5030854;28;20307;-90
2022/05/16 05:38:37;;;;;;;8.70;4.00;;;23.30;51.60;;;;;;5034380;28;20204;-92
2022/05/16 05:41:04;;;;;;;10.27;3.97;;;23.30;51.60;;;;;;5036526;28;20294;-90
2022/05/16 05:43:31;;;;;;;11.20;4.13;;;23.30;51.60;;;;;;5036788;28;20212;-91
2022/05/16 05:46:02;;;;;;;7.00;3.40;;;23.30;51.60;;;;;;5035666;28;20294;-93
2022/05/16 05:48:30;;;;;;;14.03;5.77;;;23.30;51.70;;;;;;5028080;28;20291;-88
2022/05/16 05:50:57;;;;;;;8.50;3.90;;;23.30;51.60;;;;;;5028228;28;20290;-88
2022/05/16 05:53:24;;;;;;;8.83;4.27;;;23.30;51.60;;;;;;5027298;28;20264;-90
2022/05/16 05:55:51;;;;;;;10.03;4.37;;;23.30;51.80;;;;;;5027020;28;20775;-89
2022/05/16 05:58:18;;;;;;;13.50;5.63;;;23.30;52.00;;;;;;5027508;28;20258;-87
2022/05/16 06:00:45;;;;;;;9.90;4.17;;;23.40;52.20;;;;;;5027012;28;20288;-88
2022/05/16 06:03:14;;;;;;;11.77;4.50;;;23.40;52.40;;;;;;5024307;28;20205;-88
2022/05/16 06:05:44;;;;;;;10.77;4.53;;;23.30;52.60;;;;;;5025528;28;20210;-88
2022/05/16 06:08:11;;;;;;;21.03;7.17;;;23.40;52.70;;;;;;5024469;28;20308;-87
2022/05/16 06:10:38;;;;;;;10.97;4.77;;;23.40;52.70;;;;;;5027003;28;20211;-91
2022/05/16 06:13:05;;;;;;;20.57;5.50;;;23.40;52.80;;;;;;5028216;28;20226;-87
2022/05/16 06:15:32;;;;;;;12.33;5.07;;;23.40;53.00;;;;;;5027971;28;20235;-89
2022/05/16 06:18:01;;;;;;;8.53;4.23;;;23.50;53.10;;;;;;5028269;28;20248;-86
2022/05/16 06:20:30;;;;;;;7.77;4.27;;;23.50;53.20;;;;;;5028162;28;20819;-87
2022/05/16 06:22:57;;;;;;;13.00;5.30;;;23.50;53.30;;;;;;5028011;28;20199;-87
2022/05/16 06:25:34;;;;;;;13.20;4.73;;;23.50;53.40;;;;;;5026192;28;20200;-88
2022/05/16 06:28:06;;;;;;;8.43;4.17;;;23.60;53.70;;;;;;5028984;28;20653;-88
2022/05/16 06:30:35;;;;;;;11.43;4.37;;;23.60;53.70;;;;;;5028029;28;20287;-88
2022/05/16 06:33:02;;;;;;;12.03;4.90;;;23.60;53.60;;;;;;5018702;28;20611;-86
2022/05/16 06:35:30;;;;;;;16.70;6.00;;;23.60;53.60;;;;;;5023411;28;20311;-89
2022/05/16 06:38:03;;;;;;;12.20;5.83;;;23.60;53.80;;;;;;5024531;28;20235;-88
2022/05/16 06:40:30;;;;;;;9.10;4.27;;;23.70;54.20;;;;;;5028628;28;20957;-90
2022/05/16 06:42:57;;;;;;;13.40;5.57;;;23.70;54.10;;;;;;5027306;28;20210;-90
2022/05/16 06:45:25;;;;;;;8.77;4.57;;;23.80;54.10;;;;;;5029252;28;20227;-88
2022/05/16 06:47:52;;;;;;;13.20;5.60;;;23.80;54.60;;;;;;5030579;28;20356;-88
2022/05/16 06:50:20;;;;;;;9.30;4.60;;;23.80;54.20;;;;;;5029618;28;20204;-88
2022/05/16 06:52:48;;;;;;;10.57;4.57;;;23.80;54.30;;;;;;5030074;28;20224;-86
2022/05/16 06:55:16;;;;;;;29.97;6.47;;;23.80;54.20;;;;;;5022510;28;20233;-91
2022/05/16 06:57:43;;;;;;;15.27;6.20;;;23.90;54.30;;;;;;5030925;28;20304;-88
2022/05/16 07:00:11;;;;;;;8.60;4.17;;;23.90;54.30;;;;;;5027675;28;20236;-87
2022/05/16 07:02:38;;;;;;;14.67;6.83;;;24.00;54.40;;;;;;5023006;28;20202;-87
2022/05/16 07:05:07;;;;;;;8.13;4.13;;;24.00;54.60;;;;;;5018251;28;20212;-88
2022/05/16 07:07:34;;;;;;;15.43;6.37;;;24.10;54.50;;;;;;5029552;28;21215;-89
2022/05/16 07:10:03;;;;;;;13.33;6.30;;;24.10;54.70;;;;;;5018177;28;20197;-88
2022/05/16 07:12:31;;;;;;;13.93;5.30;;;24.20;54.80;;;;;;5023679;28;20210;-89
2022/05/16 07:14:58;;;;;;;20.93;8.50;;;24.30;54.70;;;;;;5023864;28;20255;-88
2022/05/16 07:17:25;;;;;;;17.30;6.97;;;24.30;54.70;;;;;;5023242;28;20304;-87
2022/05/16 07:19:52;;;;;;;20.90;7.30;;;24.40;54.70;;;;;;5021767;28;20204;-87
2022/05/16 07:22:22;;;;;;;18.83;7.60;;;24.40;54.90;;;;;;5022556;28;20601;-87
2022/05/16 07:24:51;;;;;;;11.83;4.63;;;24.50;55.70;;;;;;5028348;28;20197;-89
2022/05/16 07:30:06;;;;;;;26.80;8.77;;;24.50;56.50;;;;;;5024270;28;20200;-87
2022/05/16 07:32:35;;;;;;;21.13;6.17;;;24.50;57.50;;;;;;5026283;28;20287;-88
2022/05/16 07:35:03;;;;;;;15.13;6.70;;;24.50;57.80;;;;;;5019783;28;20247;-88
2022/05/16 07:37:31;;;;;;;12.80;5.27;;;24.40;58.00;;;;;;5024638;28;20212;-87
2022/05/16 07:39:58;;;;;;;13.60;5.90;;;24.40;57.80;;;;;;5027052;28;20302;-90
2022/05/16 07:42:27;;;;;;;12.97;4.90;;;24.40;58.70;;;;;;5027376;28;20315;-91
2022/05/16 07:44:56;;;;;;;27.00;6.23;;;24.30;59.80;;;;;;5025564;28;20204;-89
2022/05/16 07:47:23;;;;;;;13.27;5.00;;;24.30;59.30;;;;;;5028326;28;20762;-90
2022/05/16 07:49:50;;;;;;;11.60;4.73;;;24.20;59.50;;;;;;5026400;28;20557;-91
2022/05/16 07:52:18;;;;;;;12.40;5.60;;;24.20;60.00;;;;;;5024611;28;20307;-92
2022/05/16 07:54:45;;;;;;;19.27;5.97;;;24.10;60.00;;;;;;5026021;28;20212;-90
2022/05/16 07:57:12;;;;;;;16.73;6.37;;;24.20;61.00;;;;;;5022153;28;20299;-88
2022/05/16 07:59:43;;;;;;;14.00;6.17;;;24.20;60.40;;;;;;5025862;28;20259;-90
2022/05/16 08:02:12;;;;;;;14.13;6.57;;;24.20;61.40;;;;;;5023226;28;20212;-89
2022/05/16 08:04:39;;;;;;;18.00;7.47;;;24.20;61.80;;;;;;5025278;28;20201;-92
2022/05/16 08:07:08;;;;;;;11.37;6.00;;;24.20;61.60;;;;;;5022155;28;20243;-90
2022/05/16 08:12:24;;;;;;;12.70;5.47;;;24.30;61.30;;;;;;5027612;28;20230;-89
2022/05/16 08:14:53;;;;;;;11.43;5.50;;;24.30;61.50;;;;;;5025793;28;20205;-89
2022/05/16 08:17:22;;;;;;;15.33;7.20;;;24.30;61.80;;;;;;5027487;28;20212;-88
2022/05/16 08:19:49;;;;;;;12.83;6.17;;;24.30;62.00;;;;;;5027305;28;20205;-89
2022/05/16 08:22:17;;;;;;;14.80;6.30;;;24.40;62.80;;;;;;5032006;28;20290;-89
2022/05/16 08:24:44;;;;;;;23.33;9.17;;;24.40;62.50;;;;;;5018697;28;20204;-90
2022/05/16 08:27:11;;;;;;;13.83;6.47;;;24.50;62.50;;;;;;5024602;28;20619;-88
2022/05/16 08:29:39;;;;;;;16.03;7.47;;;24.50;62.50;;;;;;5026924;28;20986;-91
2022/05/16 08:32:15;;;;;;;15.17;7.47;;;24.50;62.90;;;;;;5025156;28;20324;-88
2022/05/16 08:34:42;;;;;;;15.83;6.57;;;24.50;63.20;;;;;;5025961;28;20701;-89
2022/05/16 08:39:55;;;;;;;12.97;6.80;;;24.40;61.90;;;;;;5024104;28;20796;-92
2022/05/16 08:42:30;;;;;;;15.83;7.27;;;24.40;61.80;;;;;;5023617;28;20215;-92
2022/05/16 08:45:04;;;;;;;11.23;6.50;;;24.40;62.00;;;;;;5023711;28;20258;-90
2022/05/16 08:47:45;;;;;;;20.63;9.73;;;24.30;62.70;;;;;;5030400;28;20303;-95
2022/05/16 08:50:15;;;;;;;19.27;8.23;;;24.20;62.80;;;;;;5029078;28;20204;-91
2022/05/16 08:52:47;;;;;;;17.20;8.37;;;24.10;62.20;;;;;;5024776;28;20745;-91
2022/05/16 08:55:26;;;;;;;19.77;9.40;;;24.10;62.30;;;;;;5026315;28;20580;-89
2022/05/16 08:57:57;;;;;;;19.87;9.77;;;23.90;62.40;;;;;;5024214;28;20213;-89
2022/05/16 09:00:30;;;;;;;17.57;9.97;;;23.90;62.00;;;;;;5023524;28;20214;-90
2022/05/16 09:03:00;;;;;;;21.03;10.53;;;23.70;62.70;;;;;;5023397;28;20695;-91
2022/05/16 09:05:34;;;;;;;18.83;10.43;;;23.60;62.50;;;;;;5022747;28;20208;-91
2022/05/16 09:08:01;;;;;;;19.30;9.77;;;23.50;63.10;;;;;;5020679;28;20208;-89
2022/05/16 09:10:47;;;;;;;17.57;9.27;;;23.30;62.70;;;;;;5023960;28;20748;-89
2022/05/16 09:13:24;;;;;;;18.53;9.63;;;23.20;63.90;;;;;;5024107;28;20201;-90
2022/05/16 09:16:04;;;;;;;15.53;8.23;;;23.00;63.60;;;;;;5020242;28;20314;-91
2022/05/16 09:18:44;;;;;;;15.30;9.17;;;22.90;64.10;;;;;;5024735;28;20201;-92
2022/05/16 09:21:14;;;;;;;21.27;10.07;;;22.80;65.60;;;;;;5021797;28;20258;-89
2022/05/16 09:23:54;;;;;;;14.87;8.07;;;22.70;65.30;;;;;;5026259;28;20798;-92
2022/05/16 09:26:36;;;;;;;17.30;9.00;;;22.70;65.10;;;;;;5021259;28;20296;-94
2022/05/16 09:29:18;;;;;;;18.13;8.83;;;22.70;66.00;;;;;;5026536;28;20271;-94
2022/05/16 09:31:49;;;;;;;16.93;8.37;;;22.70;66.30;;;;;;5023243;28;20319;-94
2022/05/16 09:34:18;;;;;;;9.83;5.93;;;22.70;66.00;;;;;;5026684;28;20277;-93
2022/05/16 09:36:49;;;;;;;13.70;7.10;;;22.80;66.00;;;;;;5028520;28;20342;-93
2022/05/16 09:39:23;;;;;;;16.63;7.13;;;22.80;66.30;;;;;;5025535;28;20205;-95
2022/05/16 09:41:57;;;;;;;12.63;5.80;;;22.90;65.60;;;;;;5027553;28;20216;-93
2022/05/16 09:44:28;;;;;;;15.03;6.13;;;22.90;65.20;;;;;;5030903;28;20207;-94
2022/05/16 09:47:19;;;;;;;11.33;5.23;;;23.00;65.20;;;;;;5023768;28;20196;-94
2022/05/16 09:50:07;;;;;;;26.27;9.93;;;23.10;65.10;;;;;;5027265;28;20595;-95
2022/05/16 09:52:38;;;;;;;13.97;5.37;;;23.10;64.60;;;;;;5028272;28;20205;-91
2022/05/16 09:55:10;;;;;;;12.60;5.20;;;23.20;64.70;;;;;;5027519;28;20727;-94
2022/05/16 09:57:41;;;;;;;14.77;5.80;;;23.30;64.20;;;;;;5026925;28;20226;-96
2022/05/16 10:00:21;;;;;;;11.30;4.70;;;23.30;63.90;;;;;;5025073;28;20200;-94
2022/05/16 10:02:56;;;;;;;11.83;4.80;;;23.40;63.60;;;;;;5026172;28;20297;-90
2022/05/16 10:05:27;;;;;;;16.60;6.30;;;23.50;63.80;;;;;;5021505;28;20192;-92
2022/05/16 10:08:01;;;;;;;29.80;10.10;;;23.60;63.90;;;;;;5020250;28;20236;-89
2022/05/16 10:10:32;;;;;;;17.20;6.33;;;23.80;63.40;;;;;;5024173;28;20207;-88
2022/05/16 10:12:59;;;;;;;9.03;4.60;;;23.90;62.50;;;;;;5023240;28;20197;-89
2022/05/16 10:15:26;;;;;;;19.97;7.43;;;24.10;63.10;;;;;;5025619;28;20592;-88
2022/05/16 10:17:56;;;;;;;20.60;7.67;;;24.20;62.70;;;;;;5025521;28;20280;-89
2022/05/16 10:20:28;;;;;;;12.23;5.20;;;24.40;61.80;;;;;;5029853;28;20212;-88
2022/05/16 10:22:59;;;;;;;12.77;4.90;;;24.50;60.70;;;;;;5027703;28;20211;-89
2022/05/16 10:25:32;;;;;;;8.70;4.13;;;24.70;60.40;;;;;;5028424;28;20231;-88
2022/05/16 10:28:01;;;;;;;8.83;4.03;;;24.70;60.20;;;;;;5030485;28;20201;-88
2022/05/16 10:30:32;;;;;;;11.27;4.83;;;24.80;59.50;;;;;;5028776;28;20300;-89
2022/05/16 10:35:54;;;;;;;8.47;4.20;;;24.90;59.00;;;;;;5031654;28;20243;-90
2022/05/16 10:38:25;;;;;;;13.83;4.47;;;25.00;59.10;;;;;;5025084;28;20211;-89
2022/05/16 10:40:58;;;;;;;11.30;4.70;;;25.00;58.70;;;;;;5018419;28;20221;-89
2022/05/16 10:43:39;;;;;;;11.27;4.50;;;25.00;58.90;;;;;;5034554;28;20240;-88
2022/05/16 10:46:12;;;;;;;10.57;4.00;;;25.10;58.20;;;;;;5034615;28;20303;-88
2022/05/16 10:48:45;;;;;;;13.07;3.73;;;25.10;58.60;;;;;;5037349;28;20603;-90
2022/05/16 10:51:24;;;;;;;7.77;3.60;;;25.10;58.50;;;;;;5040755;28;20221;-89
2022/05/16 10:54:04;;;;;;;7.53;3.23;;;25.20;58.30;;;;;;5030362;28;20251;-89
2022/05/16 10:57:06;;;;;;;10.77;4.57;;;25.20;59.20;;;;;;5030785;28;20224;-89
2022/05/16 10:59:44;;;;;;;14.77;5.77;;;25.30;58.30;;;;;;5023189;28;20685;-90
2022/05/16 11:02:23;;;;;;;13.37;4.40;;;25.40;58.20;;;;;;5027812;28;20208;-89
2022/05/16 11:05:20;;;;;;;8.50;3.87;;;25.50;58.20;;;;;;5031557;28;20228;-90
2022/05/16 11:07:56;;;;;;;9.53;3.20;;;25.60;57.70;;;;;;5033901;28;20201;-89
2022/05/16 11:10:29;;;;;;;18.00;6.80;;;25.60;57.20;;;;;;5031296;28;20212;-90
2022/05/16 11:13:19;;;;;;;17.67;6.27;;;25.70;56.90;;;;;;5026312;28;20219;-90
2022/05/16 11:15:54;;;;;;;12.97;3.53;;;25.70;56.70;;;;;;5028424;28;20216;-88
2022/05/16 11:18:32;;;;;;;10.77;3.70;;;25.70;55.80;;;;;;5030886;28;20212;-90
2022/05/16 11:21:08;;;;;;;8.03;3.17;;;25.70;55.60;;;;;;5032002;28;20201;-87
2022/05/16 11:23:49;;;;;;;8.93;3.63;;;25.60;56.20;;;;;;5030865;28;20240;-88
2022/05/16 11:26:26;;;;;;;7.30;2.93;;;25.50;55.50;;;;;;5032311;28;20266;-87
2022/05/16 11:29:18;;;;;;;10.77;4.20;;;25.50;56.30;;;;;;5030037;28;20219;-87
2022/05/16 11:32:06;;;;;;;7.77;3.27;;;25.40;56.00;;;;;;5031551;28;20284;-89
2022/05/16 11:34:50;;;;;;;8.37;3.57;;;25.40;56.20;;;;;;5030620;28;20205;-92
2022/05/16 11:37:28;;;;;;;7.10;3.03;;;25.40;56.10;;;;;;5030732;28;20243;-89
2022/05/16 11:40:04;;;;;;;6.00;3.00;;;25.30;55.80;;;;;;5029894;28;20611;-88
2022/05/16 11:42:40;;;;;;;16.30;4.77;;;25.30;55.40;;;;;;5026333;28;20204;-88
2022/05/16 11:45:22;;;;;;;11.80;3.87;;;25.30;55.60;;;;;;5018865;28;20541;-89
2022/05/16 11:47:57;;;;;;;7.43;3.23;;;25.20;55.50;;;;;;5030114;28;20292;-88
2022/05/16 11:50:29;;;;;;;11.03;3.80;;;25.10;55.60;;;;;;5030396;28;20228;-88
2022/05/16 11:53:06;;;;;;;8.80;3.03;;;25.10;55.50;;;;;;5029614;28;20209;-87
2022/05/16 12:01:07;;;;;;;9.07;3.67;;;24.90;55.60;;;;;;5029557;28;20231;-90
2022/05/16 12:03:37;;;;;;;14.73;4.90;;;24.90;55.90;;;;;;5028266;28;20209;-93
2022/05/16 12:06:24;;;;;;;7.70;3.43;;;24.90;55.90;;;;;;5031486;28;20548;-91
2022/05/16 12:09:04;;;;;;;9.77;3.20;;;24.90;55.70;;;;;;5030663;28;20295;-92
2022/05/16 12:11:47;;;;;;;14.67;5.20;;;24.80;55.00;;;;;;5031024;28;20299;-91
2022/05/16 12:14:27;;;;;;;11.67;4.33;;;24.80;55.20;;;;;;5030292;28;20315;-90
2022/05/16 12:16:57;;;;;;;9.17;3.47;;;24.70;55.60;;;;;;5028206;28;20613;-87
2022/05/16 12:19:31;;;;;;;14.47;4.60;;;24.60;55.50;;;;;;5029238;28;20204;-89
2022/05/16 12:22:03;;;;;;;9.10;2.97;;;24.60;55.60;;;;;;5029694;28;20270;-88
2022/05/16 12:24:46;;;;;;;11.67;3.93;;;24.50;55.50;;;;;;5029196;28;20238;-88
2022/05/16 12:27:29;;;;;;;13.53;3.87;;;24.50;55.30;;;;;;5030325;28;20211;-94
2022/05/16 12:30:06;;;;;;;7.43;3.30;;;24.40;55.30;;;;;;5029558;28;20211;-93
2022/05/16 12:32:49;;;;;;;13.43;3.77;;;24.50;55.90;;;;;;5022578;28;20767;-94
2022/05/16 12:35:51;;;;;;;8.70;3.30;;;24.50;55.90;;;;;;5013518;28;20251;-91
2022/05/16 12:38:18;;;;;;;10.43;4.07;;;24.50;55.90;;;;;;5024170;28;20239;-88
2022/05/16 12:44:24;;;;;;;8.37;3.20;;;24.50;56.00;;;;;;5014990;28;20247;-94
2022/05/16 12:47:05;;;;;;;18.33;6.43;;;24.50;56.00;;;;;;5027809;28;20665;-89
2022/05/16 12:49:54;;;;;;;15.57;4.47;;;24.60;56.10;;;;;;5027502;28;20642;-89
2022/05/16 12:52:54;;;;;;;12.73;4.20;;;24.60;56.60;;;;;;5032045;28;20251;-90
2022/05/16 12:55:34;;;;;;;10.57;4.00;;;24.70;56.50;;;;;;5014403;28;20204;-88
2022/05/16 12:58:11;;;;;;;11.57;3.80;;;24.70;56.50;;;;;;5029226;28;20235;-89
2022/05/16 13:00:48;;;;;;;15.27;5.53;;;24.80;56.50;;;;;;5027172;28;20236;-91
2022/05/16 13:03:23;;;;;;;9.60;3.23;;;24.80;56.50;;;;;;5010138;28;20208;-89
2022/05/16 13:05:59;;;;;;;10.17;3.67;;;24.90;56.40;;;;;;5012467;28;20311;-88
2022/05/16 13:08:35;;;;;;;9.27;3.80;;;24.90;55.90;;;;;;5029303;28;20228;-91
2022/05/16 13:11:15;;;;;;;9.97;3.20;;;25.00;56.20;;;;;;5028954;28;20205;-89
2022/05/16 13:13:57;;;;;;;12.27;4.20;;;25.00;56.40;;;;;;5028233;28;20316;-90
2022/05/16 13:16:27;;;;;;;14.00;5.13;;;25.10;55.80;;;;;;5028233;28;20205;-89
2022/05/16 13:19:06;;;;;;;10.97;3.63;;;25.20;55.70;;;;;;5028353;28;20283;-91
2022/05/16 13:21:40;;;;;;;13.00;5.10;;;25.20;55.40;;;;;;5026918;28;20210;-89
2022/05/16 13:24:10;;;;;;;11.90;4.40;;;25.30;55.40;;;;;;5028671;28;20283;-90
2022/05/16 13:29:22;;;;;;;10.23;3.40;;;25.40;55.90;;;;;;5028616;28;20204;-90
2022/05/16 13:31:53;;;;;;;9.17;3.83;;;25.50;55.50;;;;;;5027856;28;20653;-88
2022/05/16 13:34:36;;;;;;;11.03;3.87;;;25.60;55.10;;;;;;5027492;28;20927;-90
2022/05/16 13:37:07;;;;;;;7.43;3.40;;;25.70;55.10;;;;;;5015155;28;20224;-87
2022/05/16 13:39:36;;;;;;;7.03;3.07;;;25.80;55.10;;;;;;5028809;28;20603;-88
2022/05/16 13:42:04;;;;;;;8.80;2.97;;;26.00;54.30;;;;;;5028637;28;20288;-90
2022/05/16 13:44:36;;;;;;;8.73;3.50;;;26.10;53.10;;;;;;5032165;28;20220;-89